sensor_id;sensor_type;location;lat;lon;timestamp;P1;durP1;ratioP1;P2;durP2;ratioP2
4353;SDS011;11018;51.258;6.806;2023-07-31T00:02:14;15.80;;;5.90;;
4353;SDS011;11018;51.258;6.806;2023-07-31T00:04:39;11.50;;;5.80;;
4353;SDS011;11018;51.258;6.806;2023-07-31T00:07:05;13.30;;;5.32;;
4353;SDS011;11018;51.258;6.806;2023-07-31T00:09:32;12.95;;;5.28;;
4353;SDS011;11018;51.258;6.806;2023-07-31T00:11:57;13.00;;;5.35;;
4353;SDS011;11018;51.258;6.806;2023-07-31T00:14:23;14.20;;;5.57;;
4353;SDS011;11018;51.258;6.806;2023-07-31T00:16:49;11.67;;;5.00;;
4353;SDS011;11018;51.258;6.806;2023-07-31T00:19:14;14.00;;;5.20;;
4353;SDS011;11018;51.258;6.806;2023-07-31T00:21:40;15.05;;;6.07;;
4353;SDS011;11018;51.258;6.806;2023-07-31T00:24:05;15.10;;;5.50;;
4353;SDS011;11018;51.258;6.806;2023-07-31T00:26:33;17.23;;;5.57;;
4353;SDS011;11018;51.258;6.806;2023-07-31T00:28:58;12.90;;;5.50;;
4353;SDS011;11018;51.258;6.806;2023-07-31T00:31:24;13.27;;;5.30;;
4353;SDS011;11018;51.258;6.806;2023-07-31T00:33:49;14.45;;;5.40;;
4353;SDS011;11018;51.258;6.806;2023-07-31T00:36:15;11.70;;;5.55;;
4353;SDS011;11018;51.258;6.806;2023-07-31T00:38:40;12.40;;;5.00;;
4353;SDS011;11018;51.258;6.806;2023-07-31T00:41:06;12.50;;;5.83;;
4353;SDS011;11018;51.258;6.806;2023-07-31T00:43:31;12.20;;;5.43;;
4353;SDS011;11018;51.258;6.806;2023-07-31T00:45:57;15.63;;;5.03;;
4353;SDS011;11018;51.258;6.806;2023-07-31T00:48:23;13.33;;;5.20;;
4353;SDS011;11018;51.258;6.806;2023-07-31T00:50:48;11.07;;;4.82;;
4353;SDS011;11018;51.258;6.806;2023-07-31T00:53:15;10.73;;;5.35;;
4353;SDS011;11018;51.258;6.806;2023-07-31T00:55:40;12.50;;;5.20;;
4353;SDS011;11018;51.258;6.806;2023-07-31T00:58:07;11.57;;;5.28;;
4353;SDS011;11018;51.258;6.806;2023-07-31T01:00:32;17.63;;;4.85;;
4353;SDS011;11018;51.258;6.806;2023-07-31T01:02:58;16.90;;;5.40;;
4353;SDS011;11018;51.258;6.806;2023-07-31T01:05:25;10.27;;;4.87;;
4353;SDS011;11018;51.258;6.806;2023-07-31T01:08:32;12.80;;;5.50;;
4353;SDS011;11018;51.258;6.806;2023-07-31T01:11:17;10.20;;;4.97;;
4353;SDS011;11018;51.258;6.806;2023-07-31T01:13:50;13.60;;;5.47;;
4353;SDS011;11018;51.258;6.806;2023-07-31T01:16:16;14.07;;;5.77;;
4353;SDS011;11018;51.258;6.806;2023-07-31T01:18:41;10.13;;;4.67;;
4353;SDS011;11018;51.258;6.806;2023-07-31T01:27:06;12.35;;;4.82;;
4353;SDS011;11018;51.258;6.806;2023-07-31T01:32:14;18.10;;;5.35;;
4353;SDS011;11018;51.258;6.806;2023-07-31T01:34:42;18.05;;;5.60;;
4353;SDS011;11018;51.258;6.806;2023-07-31T01:37:09;16.20;;;5.38;;
4353;SDS011;11018;51.258;6.806;2023-07-31T01:39:34;16.97;;;5.63;;
4353;SDS011;11018;51.258;6.806;2023-07-31T01:42:00;14.20;;;5.70;;
4353;SDS011;11018;51.258;6.806;2023-07-31T01:44:26;18.20;;;5.20;;
4353;SDS011;11018;51.258;6.806;2023-07-31T01:46:51;13.55;;;5.30;;
4353;SDS011;11018;51.258;6.806;2023-07-31T01:49:17;10.63;;;4.60;;
4353;SDS011;11018;51.258;6.806;2023-07-31T01:51:42;15.43;;;4.97;;
4353;SDS011;11018;51.258;6.806;2023-07-31T01:54:08;17.10;;;5.40;;
4353;SDS011;11018;51.258;6.806;2023-07-31T01:56:33;18.33;;;5.60;;
4353;SDS011;11018;51.258;6.806;2023-07-31T01:58:59;16.03;;;5.83;;
4353;SDS011;11018;51.258;6.806;2023-07-31T02:01:24;20.17;;;5.93;;
4353;SDS011;11018;51.258;6.806;2023-07-31T02:03:50;15.63;;;5.47;;
4353;SDS011;11018;51.258;6.806;2023-07-31T02:06:16;15.33;;;5.30;;
4353;SDS011;11018;51.258;6.806;2023-07-31T02:08:41;15.27;;;6.23;;
4353;SDS011;11018;51.258;6.806;2023-07-31T02:11:07;19.00;;;6.27;;
4353;SDS011;11018;51.258;6.806;2023-07-31T02:13:32;17.70;;;5.60;;
4353;SDS011;11018;51.258;6.806;2023-07-31T02:15:58;13.60;;;5.20;;
4353;SDS011;11018;51.258;6.806;2023-07-31T02:18:23;19.63;;;6.67;;
4353;SDS011;11018;51.258;6.806;2023-07-31T02:20:50;16.35;;;6.28;;
4353;SDS011;11018;51.258;6.806;2023-07-31T02:23:16;14.35;;;5.15;;
4353;SDS011;11018;51.258;6.806;2023-07-31T02:25:43;16.40;;;5.82;;
4353;SDS011;11018;51.258;6.806;2023-07-31T02:28:08;14.57;;;5.75;;
4353;SDS011;11018;51.258;6.806;2023-07-31T02:30:34;18.33;;;5.38;;
4353;SDS011;11018;51.258;6.806;2023-07-31T02:33:00;13.60;;;5.80;;
4353;SDS011;11018;51.258;6.806;2023-07-31T02:35:25;14.88;;;5.53;;
4353;SDS011;11018;51.258;6.806;2023-07-31T02:37:51;16.80;;;5.97;;
4353;SDS011;11018;51.258;6.806;2023-07-31T02:40:16;17.80;;;6.37;;
4353;SDS011;11018;51.258;6.806;2023-07-31T02:42:42;14.30;;;5.80;;
4353;SDS011;11018;51.258;6.806;2023-07-31T02:45:07;19.77;;;5.30;;
4353;SDS011;11018;51.258;6.806;2023-07-31T02:47:33;19.35;;;5.78;;
4353;SDS011;11018;51.258;6.806;2023-07-31T02:49:59;14.55;;;5.20;;
4353;SDS011;11018;51.258;6.806;2023-07-31T02:52:25;13.25;;;4.90;;
4353;SDS011;11018;51.258;6.806;2023-07-31T02:54:51;11.90;;;5.05;;
4353;SDS011;11018;51.258;6.806;2023-07-31T02:57:16;14.98;;;5.63;;
4353;SDS011;11018;51.258;6.806;2023-07-31T02:59:42;8.53;;;5.27;;
4353;SDS011;11018;51.258;6.806;2023-07-31T03:02:08;12.20;;;6.00;;
4353;SDS011;11018;51.258;6.806;2023-07-31T03:04:33;14.50;;;5.60;;
4353;SDS011;11018;51.258;6.806;2023-07-31T03:06:59;11.23;;;5.57;;
4353;SDS011;11018;51.258;6.806;2023-07-31T03:09:24;12.67;;;5.40;;
4353;SDS011;11018;51.258;6.806;2023-07-31T03:11:50;13.45;;;5.47;;
4353;SDS011;11018;51.258;6.806;2023-07-31T03:14:15;12.80;;;5.70;;
4353;SDS011;11018;51.258;6.806;2023-07-31T03:16:41;13.17;;;5.43;;
4353;SDS011;11018;51.258;6.806;2023-07-31T03:19:06;15.65;;;5.65;;
4353;SDS011;11018;51.258;6.806;2023-07-31T03:21:32;15.23;;;5.70;;
4353;SDS011;11018;51.258;6.806;2023-07-31T03:23:58;15.60;;;5.73;;
4353;SDS011;11018;51.258;6.806;2023-07-31T03:26:23;14.00;;;5.20;;
4353;SDS011;11018;51.258;6.806;2023-07-31T03:28:49;12.48;;;5.20;;
4353;SDS011;11018;51.258;6.806;2023-07-31T03:31:14;13.03;;;5.80;;
4353;SDS011;11018;51.258;6.806;2023-07-31T03:33:40;22.33;;;5.85;;
4353;SDS011;11018;51.258;6.806;2023-07-31T03:36:05;14.10;;;6.07;;
4353;SDS011;11018;51.258;6.806;2023-07-31T03:38:31;18.87;;;5.47;;
4353;SDS011;11018;51.258;6.806;2023-07-31T03:40:56;12.38;;;5.97;;
4353;SDS011;11018;51.258;6.806;2023-07-31T03:43:23;12.25;;;5.32;;
4353;SDS011;11018;51.258;6.806;2023-07-31T03:45:50;16.02;;;6.00;;
4353;SDS011;11018;51.258;6.806;2023-07-31T03:48:15;15.77;;;5.37;;
4353;SDS011;11018;51.258;6.806;2023-07-31T03:50:41;14.52;;;5.80;;
4353;SDS011;11018;51.258;6.806;2023-07-31T03:53:07;13.20;;;5.13;;
4353;SDS011;11018;51.258;6.806;2023-07-31T03:55:32;17.37;;;5.80;;
4353;SDS011;11018;51.258;6.806;2023-07-31T03:57:58;11.73;;;6.50;;
4353;SDS011;11018;51.258;6.806;2023-07-31T04:00:25;16.42;;;6.60;;
4353;SDS011;11018;51.258;6.806;2023-07-31T04:02:52;14.20;;;5.97;;
4353;SDS011;11018;51.258;6.806;2023-07-31T04:05:17;17.60;;;5.53;;
4353;SDS011;11018;51.258;6.806;2023-07-31T04:07:43;12.97;;;5.57;;
4353;SDS011;11018;51.258;6.806;2023-07-31T04:10:09;15.52;;;5.90;;
4353;SDS011;11018;51.258;6.806;2023-07-31T04:12:34;14.18;;;5.60;;
4353;SDS011;11018;51.258;6.806;2023-07-31T04:15:00;14.63;;;5.90;;
4353;SDS011;11018;51.258;6.806;2023-07-31T04:17:25;12.10;;;5.90;;
4353;SDS011;11018;51.258;6.806;2023-07-31T04:19:51;15.75;;;6.38;;
4353;SDS011;11018;51.258;6.806;2023-07-31T04:22:17;12.93;;;6.20;;
4353;SDS011;11018;51.258;6.806;2023-07-31T04:24:42;16.13;;;6.55;;
4353;SDS011;11018;51.258;6.806;2023-07-31T04:27:08;15.23;;;6.20;;
4353;SDS011;11018;51.258;6.806;2023-07-31T04:29:33;12.27;;;5.90;;
4353;SDS011;11018;51.258;6.806;2023-07-31T04:31:59;13.93;;;6.10;;
4353;SDS011;11018;51.258;6.806;2023-07-31T04:34:24;17.80;;;6.60;;
4353;SDS011;11018;51.258;6.806;2023-07-31T04:36:50;13.47;;;5.80;;
4353;SDS011;11018;51.258;6.806;2023-07-31T04:39:15;16.35;;;6.03;;
4353;SDS011;11018;51.258;6.806;2023-07-31T04:41:41;17.27;;;6.60;;
4353;SDS011;11018;51.258;6.806;2023-07-31T04:44:06;13.07;;;6.10;;
4353;SDS011;11018;51.258;6.806;2023-07-31T04:46:32;13.75;;;6.13;;
4353;SDS011;11018;51.258;6.806;2023-07-31T04:48:57;13.23;;;6.70;;
4353;SDS011;11018;51.258;6.806;2023-07-31T04:51:23;15.97;;;6.40;;
4353;SDS011;11018;51.258;6.806;2023-07-31T04:53:50;11.40;;;6.00;;
4353;SDS011;11018;51.258;6.806;2023-07-31T04:56:15;17.73;;;6.87;;
4353;SDS011;11018;51.258;6.806;2023-07-31T04:58:41;13.90;;;5.60;;
4353;SDS011;11018;51.258;6.806;2023-07-31T05:01:07;12.80;;;6.30;;
4353;SDS011;11018;51.258;6.806;2023-07-31T05:03:32;16.98;;;6.57;;
4353;SDS011;11018;51.258;6.806;2023-07-31T05:05:58;13.50;;;6.10;;
4353;SDS011;11018;51.258;6.806;2023-07-31T05:08:23;15.85;;;6.80;;
4353;SDS011;11018;51.258;6.806;2023-07-31T05:10:49;18.25;;;6.82;;
4353;SDS011;11018;51.258;6.806;2023-07-31T05:13:15;15.10;;;6.60;;
4353;SDS011;11018;51.258;6.806;2023-07-31T05:15:41;13.43;;;6.30;;
4353;SDS011;11018;51.258;6.806;2023-07-31T05:18:07;14.65;;;5.95;;
4353;SDS011;11018;51.258;6.806;2023-07-31T05:20:32;15.30;;;6.20;;
4353;SDS011;11018;51.258;6.806;2023-07-31T05:22:58;13.00;;;5.68;;
4353;SDS011;11018;51.258;6.806;2023-07-31T05:25:23;12.37;;;6.33;;
4353;SDS011;11018;51.258;6.806;2023-07-31T05:27:49;13.10;;;6.50;;
4353;SDS011;11018;51.258;6.806;2023-07-31T05:30:14;16.45;;;6.53;;
4353;SDS011;11018;51.258;6.806;2023-07-31T05:32:40;13.43;;;5.40;;
4353;SDS011;11018;51.258;6.806;2023-07-31T05:35:06;12.50;;;5.80;;
4353;SDS011;11018;51.258;6.806;2023-07-31T05:37:31;13.60;;;5.80;;
4353;SDS011;11018;51.258;6.806;2023-07-31T05:39:57;10.43;;;5.68;;
4353;SDS011;11018;51.258;6.806;2023-07-31T05:42:23;10.10;;;6.10;;
4353;SDS011;11018;51.258;6.806;2023-07-31T05:44:48;12.33;;;6.10;;
4353;SDS011;11018;51.258;6.806;2023-07-31T05:47:14;19.50;;;6.77;;
4353;SDS011;11018;51.258;6.806;2023-07-31T05:49:40;13.93;;;6.15;;
4353;SDS011;11018;51.258;6.806;2023-07-31T05:52:05;14.67;;;6.23;;
4353;SDS011;11018;51.258;6.806;2023-07-31T05:54:31;10.83;;;6.10;;
4353;SDS011;11018;51.258;6.806;2023-07-31T05:56:58;15.32;;;5.90;;
4353;SDS011;11018;51.258;6.806;2023-07-31T05:59:23;12.80;;;6.17;;
4353;SDS011;11018;51.258;6.806;2023-07-31T06:01:49;13.50;;;5.57;;
4353;SDS011;11018;51.258;6.806;2023-07-31T06:04:14;12.82;;;5.70;;
4353;SDS011;11018;51.258;6.806;2023-07-31T06:06:40;10.73;;;5.63;;
4353;SDS011;11018;51.258;6.806;2023-07-31T06:09:05;15.70;;;5.95;;
4353;SDS011;11018;51.258;6.806;2023-07-31T06:11:32;11.18;;;6.00;;
4353;SDS011;11018;51.258;6.806;2023-07-31T06:13:58;12.80;;;6.27;;
4353;SDS011;11018;51.258;6.806;2023-07-31T06:16:24;14.60;;;6.45;;
4353;SDS011;11018;51.258;6.806;2023-07-31T06:18:50;12.35;;;6.18;;
4353;SDS011;11018;51.258;6.806;2023-07-31T06:21:15;10.20;;;6.20;;
4353;SDS011;11018;51.258;6.806;2023-07-31T06:23:41;13.93;;;6.30;;
4353;SDS011;11018;51.258;6.806;2023-07-31T06:26:07;14.17;;;5.73;;
4353;SDS011;11018;51.258;6.806;2023-07-31T06:28:33;11.03;;;5.23;;
4353;SDS011;11018;51.258;6.806;2023-07-31T06:30:59;12.60;;;5.90;;
4353;SDS011;11018;51.258;6.806;2023-07-31T06:33:25;14.10;;;6.13;;
4353;SDS011;11018;51.258;6.806;2023-07-31T06:35:51;10.35;;;5.80;;
4353;SDS011;11018;51.258;6.806;2023-07-31T06:38:26;11.63;;;5.93;;
4353;SDS011;11018;51.258;6.806;2023-07-31T06:40:52;11.55;;;5.75;;
4353;SDS011;11018;51.258;6.806;2023-07-31T06:43:18;11.95;;;6.50;;
4353;SDS011;11018;51.258;6.806;2023-07-31T06:45:44;8.80;;;5.20;;
4353;SDS011;11018;51.258;6.806;2023-07-31T06:48:10;10.43;;;5.72;;
4353;SDS011;11018;51.258;6.806;2023-07-31T06:50:36;8.80;;;5.40;;
4353;SDS011;11018;51.258;6.806;2023-07-31T06:53:02;7.78;;;5.00;;
4353;SDS011;11018;51.258;6.806;2023-07-31T06:55:27;12.23;;;5.50;;
4353;SDS011;11018;51.258;6.806;2023-07-31T06:57:53;12.30;;;5.90;;
4353;SDS011;11018;51.258;6.806;2023-07-31T07:00:20;15.53;;;5.87;;
4353;SDS011;11018;51.258;6.806;2023-07-31T07:02:47;14.32;;;5.20;;
4353;SDS011;11018;51.258;6.806;2023-07-31T07:05:13;14.77;;;5.65;;
4353;SDS011;11018;51.258;6.806;2023-07-31T07:07:40;11.63;;;5.18;;
4353;SDS011;11018;51.258;6.806;2023-07-31T07:10:06;11.65;;;5.80;;
4353;SDS011;11018;51.258;6.806;2023-07-31T07:12:32;15.38;;;5.60;;
4353;SDS011;11018;51.258;6.806;2023-07-31T07:14:59;14.48;;;6.30;;
4353;SDS011;11018;51.258;6.806;2023-07-31T07:17:25;14.00;;;5.30;;
4353;SDS011;11018;51.258;6.806;2023-07-31T07:19:53;10.00;;;5.13;;
4353;SDS011;11018;51.258;6.806;2023-07-31T07:22:20;13.30;;;5.68;;
4353;SDS011;11018;51.258;6.806;2023-07-31T07:24:45;12.30;;;4.78;;
4353;SDS011;11018;51.258;6.806;2023-07-31T07:27:11;9.90;;;5.30;;
4353;SDS011;11018;51.258;6.806;2023-07-31T07:29:37;12.13;;;5.07;;
4353;SDS011;11018;51.258;6.806;2023-07-31T07:32:06;12.60;;;5.23;;
4353;SDS011;11018;51.258;6.806;2023-07-31T07:34:32;16.33;;;5.40;;
4353;SDS011;11018;51.258;6.806;2023-07-31T07:36:57;13.00;;;5.77;;
4353;SDS011;11018;51.258;6.806;2023-07-31T07:39:23;13.45;;;5.57;;
4353;SDS011;11018;51.258;6.806;2023-07-31T07:41:48;9.10;;;4.93;;
4353;SDS011;11018;51.258;6.806;2023-07-31T07:44:14;12.40;;;5.30;;
4353;SDS011;11018;51.258;6.806;2023-07-31T07:46:39;11.80;;;4.73;;
4353;SDS011;11018;51.258;6.806;2023-07-31T07:49:05;11.17;;;5.00;;
4353;SDS011;11018;51.258;6.806;2023-07-31T07:51:31;9.97;;;4.97;;
4353;SDS011;11018;51.258;6.806;2023-07-31T07:53:57;11.90;;;4.90;;
4353;SDS011;11018;51.258;6.806;2023-07-31T07:56:24;10.80;;;5.40;;
4353;SDS011;11018;51.258;6.806;2023-07-31T07:58:51;11.45;;;5.15;;
4353;SDS011;11018;51.258;6.806;2023-07-31T08:01:16;9.77;;;4.47;;
4353;SDS011;11018;51.258;6.806;2023-07-31T08:03:42;8.13;;;4.45;;
4353;SDS011;11018;51.258;6.806;2023-07-31T08:06:08;7.80;;;4.10;;
4353;SDS011;11018;51.258;6.806;2023-07-31T08:08:34;11.50;;;4.95;;
4353;SDS011;11018;51.258;6.806;2023-07-31T08:11:01;11.90;;;4.70;;
4353;SDS011;11018;51.258;6.806;2023-07-31T08:13:26;10.50;;;4.68;;
4353;SDS011;11018;51.258;6.806;2023-07-31T08:15:52;8.70;;;4.72;;
4353;SDS011;11018;51.258;6.806;2023-07-31T08:18:17;9.13;;;4.90;;
4353;SDS011;11018;51.258;6.806;2023-07-31T08:20:43;9.70;;;4.50;;
4353;SDS011;11018;51.258;6.806;2023-07-31T08:23:09;8.27;;;4.00;;
4353;SDS011;11018;51.258;6.806;2023-07-31T08:25:35;8.23;;;4.50;;
4353;SDS011;11018;51.258;6.806;2023-07-31T08:28:01;7.90;;;4.03;;
4353;SDS011;11018;51.258;6.806;2023-07-31T08:30:27;7.60;;;4.32;;
4353;SDS011;11018;51.258;6.806;2023-07-31T08:32:53;8.67;;;3.90;;
4353;SDS011;11018;51.258;6.806;2023-07-31T08:35:18;9.63;;;4.20;;
4353;SDS011;11018;51.258;6.806;2023-07-31T08:37:44;11.63;;;4.00;;
4353;SDS011;11018;51.258;6.806;2023-07-31T08:40:09;6.45;;;3.80;;
4353;SDS011;11018;51.258;6.806;2023-07-31T08:42:45;8.18;;;4.70;;
4353;SDS011;11018;51.258;6.806;2023-07-31T08:45:13;13.18;;;4.70;;
4353;SDS011;11018;51.258;6.806;2023-07-31T08:47:41;6.80;;;4.15;;
4353;SDS011;11018;51.258;6.806;2023-07-31T08:50:10;8.00;;;4.22;;
4353;SDS011;11018;51.258;6.806;2023-07-31T08:52:37;6.55;;;4.03;;
4353;SDS011;11018;51.258;6.806;2023-07-31T08:55:03;10.93;;;4.97;;
4353;SDS011;11018;51.258;6.806;2023-07-31T08:57:30;12.60;;;4.50;;
4353;SDS011;11018;51.258;6.806;2023-07-31T08:59:56;9.18;;;4.63;;
4353;SDS011;11018;51.258;6.806;2023-07-31T09:02:22;9.60;;;4.80;;
4353;SDS011;11018;51.258;6.806;2023-07-31T09:04:49;12.23;;;4.57;;
4353;SDS011;11018;51.258;6.806;2023-07-31T09:07:15;9.93;;;4.60;;
4353;SDS011;11018;51.258;6.806;2023-07-31T09:09:41;6.73;;;4.33;;
4353;SDS011;11018;51.258;6.806;2023-07-31T09:12:07;9.50;;;4.40;;
4353;SDS011;11018;51.258;6.806;2023-07-31T09:14:32;11.15;;;4.10;;
4353;SDS011;11018;51.258;6.806;2023-07-31T09:16:59;9.75;;;4.22;;
4353;SDS011;11018;51.258;6.806;2023-07-31T09:19:25;10.45;;;4.53;;
4353;SDS011;11018;51.258;6.806;2023-07-31T09:21:52;12.73;;;4.35;;
4353;SDS011;11018;51.258;6.806;2023-07-31T09:24:30;11.43;;;4.70;;
4353;SDS011;11018;51.258;6.806;2023-07-31T09:26:57;6.63;;;3.90;;
4353;SDS011;11018;51.258;6.806;2023-07-31T09:29:24;7.73;;;4.50;;
4353;SDS011;11018;51.258;6.806;2023-07-31T09:31:51;7.90;;;4.28;;
4353;SDS011;11018;51.258;6.806;2023-07-31T09:34:17;10.02;;;4.15;;
4353;SDS011;11018;51.258;6.806;2023-07-31T09:36:44;8.32;;;4.18;;
4353;SDS011;11018;51.258;6.806;2023-07-31T09:39:14;6.65;;;4.32;;
4353;SDS011;11018;51.258;6.806;2023-07-31T09:41:44;7.65;;;4.10;;
4353;SDS011;11018;51.258;6.806;2023-07-31T09:44:12;7.97;;;4.22;;
4353;SDS011;11018;51.258;6.806;2023-07-31T09:46:38;9.47;;;4.70;;
4353;SDS011;11018;51.258;6.806;2023-07-31T09:49:04;10.27;;;4.90;;
4353;SDS011;11018;51.258;6.806;2023-07-31T09:51:37;5.90;;;3.80;;
4353;SDS011;11018;51.258;6.806;2023-07-31T09:54:11;7.78;;;4.20;;
4353;SDS011;11018;51.258;6.806;2023-07-31T09:56:48;6.73;;;4.17;;
4353;SDS011;11018;51.258;6.806;2023-07-31T09:59:17;8.43;;;4.05;;
4353;SDS011;11018;51.258;6.806;2023-07-31T10:01:45;6.68;;;4.10;;
4353;SDS011;11018;51.258;6.806;2023-07-31T10:04:11;7.88;;;4.38;;
4353;SDS011;11018;51.258;6.806;2023-07-31T10:06:38;7.65;;;4.00;;
4353;SDS011;11018;51.258;6.806;2023-07-31T10:09:06;7.40;;;4.55;;
4353;SDS011;11018;51.258;6.806;2023-07-31T10:11:43;8.33;;;4.47;;
4353;SDS011;11018;51.258;6.806;2023-07-31T10:14:24;8.55;;;3.80;;
4353;SDS011;11018;51.258;6.806;2023-07-31T10:16:52;9.60;;;4.90;;
4353;SDS011;11018;51.258;6.806;2023-07-31T10:19:18;6.40;;;4.17;;
4353;SDS011;11018;51.258;6.806;2023-07-31T10:21:45;7.13;;;3.90;;
4353;SDS011;11018;51.258;6.806;2023-07-31T10:24:11;7.00;;;4.13;;
4353;SDS011;11018;51.258;6.806;2023-07-31T10:26:37;8.48;;;4.40;;
4353;SDS011;11018;51.258;6.806;2023-07-31T10:29:04;8.87;;;4.53;;
4353;SDS011;11018;51.258;6.806;2023-07-31T10:31:31;48.28;;;11.50;;
4353;SDS011;11018;51.258;6.806;2023-07-31T10:33:57;8.60;;;4.68;;
4353;SDS011;11018;51.258;6.806;2023-07-31T10:36:28;8.97;;;4.33;;
4353;SDS011;11018;51.258;6.806;2023-07-31T10:38:55;6.10;;;4.00;;
4353;SDS011;11018;51.258;6.806;2023-07-31T10:41:28;7.68;;;4.45;;
4353;SDS011;11018;51.258;6.806;2023-07-31T10:43:57;7.53;;;3.92;;
4353;SDS011;11018;51.258;6.806;2023-07-31T10:46:23;11.90;;;3.90;;
4353;SDS011;11018;51.258;6.806;2023-07-31T10:48:51;8.68;;;4.45;;
4353;SDS011;11018;51.258;6.806;2023-07-31T10:51:23;7.53;;;3.90;;
4353;SDS011;11018;51.258;6.806;2023-07-31T10:54:15;8.40;;;4.40;;
4353;SDS011;11018;51.258;6.806;2023-07-31T10:56:46;6.85;;;3.75;;
4353;SDS011;11018;51.258;6.806;2023-07-31T10:59:14;6.65;;;3.88;;
4353;SDS011;11018;51.258;6.806;2023-07-31T11:01:55;7.15;;;4.20;;
4353;SDS011;11018;51.258;6.806;2023-07-31T11:04:27;8.18;;;4.07;;
4353;SDS011;11018;51.258;6.806;2023-07-31T11:06:59;7.80;;;4.00;;
4353;SDS011;11018;51.258;6.806;2023-07-31T11:09:28;9.30;;;4.30;;
4353;SDS011;11018;51.258;6.806;2023-07-31T11:11:55;8.57;;;3.90;;
4353;SDS011;11018;51.258;6.806;2023-07-31T11:14:21;6.45;;;3.55;;
4353;SDS011;11018;51.258;6.806;2023-07-31T11:16:49;5.18;;;3.50;;
4353;SDS011;11018;51.258;6.806;2023-07-31T11:19:21;5.87;;;2.90;;
4353;SDS011;11018;51.258;6.806;2023-07-31T11:21:48;7.63;;;3.30;;
4353;SDS011;11018;51.258;6.806;2023-07-31T11:24:14;8.70;;;2.90;;
4353;SDS011;11018;51.258;6.806;2023-07-31T11:26:47;4.53;;;2.80;;
4353;SDS011;11018;51.258;6.806;2023-07-31T11:29:19;5.28;;;2.97;;
4353;SDS011;11018;51.258;6.806;2023-07-31T11:31:45;5.60;;;2.90;;
4353;SDS011;11018;51.258;6.806;2023-07-31T11:34:12;4.38;;;2.83;;
4353;SDS011;11018;51.258;6.806;2023-07-31T11:36:38;8.18;;;3.15;;
4353;SDS011;11018;51.258;6.806;2023-07-31T11:39:10;7.83;;;2.77;;
4353;SDS011;11018;51.258;6.806;2023-07-31T11:41:36;4.70;;;2.60;;
4353;SDS011;11018;51.258;6.806;2023-07-31T11:44:05;3.72;;;2.65;;
4353;SDS011;11018;51.258;6.806;2023-07-31T11:46:31;3.40;;;2.20;;
4353;SDS011;11018;51.258;6.806;2023-07-31T11:48:59;5.03;;;2.60;;
4353;SDS011;11018;51.258;6.806;2023-07-31T11:51:25;5.60;;;2.80;;
4353;SDS011;11018;51.258;6.806;2023-07-31T11:53:54;2.42;;;2.08;;
4353;SDS011;11018;51.258;6.806;2023-07-31T11:56:22;6.55;;;2.80;;
4353;SDS011;11018;51.258;6.806;2023-07-31T11:58:51;5.40;;;2.30;;
4353;SDS011;11018;51.258;6.806;2023-07-31T12:01:23;6.00;;;2.38;;
4353;SDS011;11018;51.258;6.806;2023-07-31T12:03:50;3.70;;;2.20;;
4353;SDS011;11018;51.258;6.806;2023-07-31T12:06:16;3.85;;;2.03;;
4353;SDS011;11018;51.258;6.806;2023-07-31T12:08:41;3.70;;;2.10;;
4353;SDS011;11018;51.258;6.806;2023-07-31T12:11:08;2.63;;;2.00;;
4353;SDS011;11018;51.258;6.806;2023-07-31T12:13:42;4.13;;;2.40;;
4353;SDS011;11018;51.258;6.806;2023-07-31T12:16:08;4.10;;;2.30;;
4353;SDS011;11018;51.258;6.806;2023-07-31T12:18:34;4.85;;;2.10;;
4353;SDS011;11018;51.258;6.806;2023-07-31T12:21:02;3.33;;;2.20;;
4353;SDS011;11018;51.258;6.806;2023-07-31T12:23:33;4.32;;;2.70;;
4353;SDS011;11018;51.258;6.806;2023-07-31T12:28:26;4.07;;;1.92;;
4353;SDS011;11018;51.258;6.806;2023-07-31T12:30:51;9.47;;;3.00;;
4353;SDS011;11018;51.258;6.806;2023-07-31T12:33:30;5.22;;;2.50;;
4353;SDS011;11018;51.258;6.806;2023-07-31T12:35:57;5.70;;;2.45;;
4353;SDS011;11018;51.258;6.806;2023-07-31T12:38:23;3.50;;;2.40;;
4353;SDS011;11018;51.258;6.806;2023-07-31T12:40:49;4.78;;;2.80;;
4353;SDS011;11018;51.258;6.806;2023-07-31T12:43:14;3.40;;;2.60;;
4353;SDS011;11018;51.258;6.806;2023-07-31T12:45:40;3.95;;;2.90;;
4353;SDS011;11018;51.258;6.806;2023-07-31T12:48:06;4.13;;;2.40;;
4353;SDS011;11018;51.258;6.806;2023-07-31T12:50:31;3.42;;;2.40;;
4353;SDS011;11018;51.258;6.806;2023-07-31T12:52:57;5.80;;;3.03;;
4353;SDS011;11018;51.258;6.806;2023-07-31T12:55:23;5.32;;;2.90;;
4353;SDS011;11018;51.258;6.806;2023-07-31T12:57:49;4.70;;;2.70;;
4353;SDS011;11018;51.258;6.806;2023-07-31T13:00:16;5.03;;;2.75;;
4353;SDS011;11018;51.258;6.806;2023-07-31T13:02:41;9.40;;;3.00;;
4353;SDS011;11018;51.258;6.806;2023-07-31T13:05:07;4.35;;;3.25;;
4353;SDS011;11018;51.258;6.806;2023-07-31T13:07:33;4.28;;;3.00;;
4353;SDS011;11018;51.258;6.806;2023-07-31T13:09:59;3.22;;;2.60;;
4353;SDS011;11018;51.258;6.806;2023-07-31T13:12:25;7.07;;;3.80;;
4353;SDS011;11018;51.258;6.806;2023-07-31T13:14:50;5.30;;;3.53;;
4353;SDS011;11018;51.258;6.806;2023-07-31T13:17:16;5.60;;;3.60;;
4353;SDS011;11018;51.258;6.806;2023-07-31T13:19:42;4.93;;;3.58;;
4353;SDS011;11018;51.258;6.806;2023-07-31T13:22:08;7.07;;;4.10;;
4353;SDS011;11018;51.258;6.806;2023-07-31T13:24:34;7.80;;;4.57;;
4353;SDS011;11018;51.258;6.806;2023-07-31T13:26:59;8.83;;;3.80;;
4353;SDS011;11018;51.258;6.806;2023-07-31T13:29:25;6.05;;;3.90;;
4353;SDS011;11018;51.258;6.806;2023-07-31T13:31:51;7.20;;;4.30;;
4353;SDS011;11018;51.258;6.806;2023-07-31T13:34:17;7.30;;;4.00;;
4353;SDS011;11018;51.258;6.806;2023-07-31T13:36:43;5.63;;;3.47;;
4353;SDS011;11018;51.258;6.806;2023-07-31T13:39:08;6.68;;;3.47;;
4353;SDS011;11018;51.258;6.806;2023-07-31T13:41:34;5.43;;;3.30;;
4353;SDS011;11018;51.258;6.806;2023-07-31T13:44:00;5.97;;;3.78;;
4353;SDS011;11018;51.258;6.806;2023-07-31T13:46:25;9.20;;;4.00;;
4353;SDS011;11018;51.258;6.806;2023-07-31T13:48:51;7.97;;;3.92;;
4353;SDS011;11018;51.258;6.806;2023-07-31T13:51:19;7.35;;;3.72;;
4353;SDS011;11018;51.258;6.806;2023-07-31T13:53:45;6.18;;;3.70;;
4353;SDS011;11018;51.258;6.806;2023-07-31T13:56:10;7.80;;;3.73;;
4353;SDS011;11018;51.258;6.806;2023-07-31T13:58:36;6.80;;;3.83;;
4353;SDS011;11018;51.258;6.806;2023-07-31T14:01:02;7.00;;;3.85;;
4353;SDS011;11018;51.258;6.806;2023-07-31T14:03:28;6.40;;;3.20;;
4353;SDS011;11018;51.258;6.806;2023-07-31T14:05:54;5.70;;;3.70;;
4353;SDS011;11018;51.258;6.806;2023-07-31T14:08:20;6.80;;;4.30;;
4353;SDS011;11018;51.258;6.806;2023-07-31T14:10:46;8.70;;;3.97;;
4353;SDS011;11018;51.258;6.806;2023-07-31T14:13:12;6.83;;;4.00;;
4353;SDS011;11018;51.258;6.806;2023-07-31T14:15:37;5.60;;;3.30;;
4353;SDS011;11018;51.258;6.806;2023-07-31T14:18:04;6.50;;;3.20;;
4353;SDS011;11018;51.258;6.806;2023-07-31T14:20:30;5.60;;;3.55;;
4353;SDS011;11018;51.258;6.806;2023-07-31T14:22:55;5.70;;;3.40;;
4353;SDS011;11018;51.258;6.806;2023-07-31T14:25:21;9.65;;;4.10;;
4353;SDS011;11018;51.258;6.806;2023-07-31T14:27:46;7.10;;;3.83;;
4353;SDS011;11018;51.258;6.806;2023-07-31T14:30:12;6.32;;;4.13;;
4353;SDS011;11018;51.258;6.806;2023-07-31T14:32:37;6.32;;;3.78;;
4353;SDS011;11018;51.258;6.806;2023-07-31T14:35:03;6.27;;;4.20;;
4353;SDS011;11018;51.258;6.806;2023-07-31T14:37:42;9.05;;;3.85;;
4353;SDS011;11018;51.258;6.806;2023-07-31T14:40:09;6.85;;;3.80;;
4353;SDS011;11018;51.258;6.806;2023-07-31T14:42:36;6.22;;;3.80;;
4353;SDS011;11018;51.258;6.806;2023-07-31T14:45:03;8.07;;;4.10;;
4353;SDS011;11018;51.258;6.806;2023-07-31T14:47:31;7.30;;;4.05;;
4353;SDS011;11018;51.258;6.806;2023-07-31T14:49:57;7.00;;;4.47;;
4353;SDS011;11018;51.258;6.806;2023-07-31T14:52:24;11.43;;;5.18;;
4353;SDS011;11018;51.258;6.806;2023-07-31T14:54:49;6.25;;;4.05;;
4353;SDS011;11018;51.258;6.806;2023-07-31T14:57:15;6.47;;;4.40;;
4353;SDS011;11018;51.258;6.806;2023-07-31T14:59:40;8.48;;;4.35;;
4353;SDS011;11018;51.258;6.806;2023-07-31T15:02:07;8.77;;;4.60;;